Terminal Aerodrome Forecast
Issued by NWS

Home | Current Version | Previous Version | Text Only | Print | Product List | Glossary Off
Versions: 1 2 3 4 5 6 7 8 9 10 11 12 13 14 15 16 17 18 19 20 21 22 23 24 25 26 27 28 29 30 31 32 33

000
FTUS43 KLOT 282100 AAB
TAFDPA
TAF AMD
KDPA 282107Z 2821/2918 36010KT P6SM BKN050
     FM290100 VRB05KT P6SM FEW060 SCT120
     FM291600 32010KT P6SM FEW035=

USA.gov is the U.S. government's official web portal to all federal, state and local government web resources and services.